createdAt,value
2018-12-07T00:02:05.270Z,3.00
2018-12-07T00:04:34.925Z,3.00
2018-12-07T00:07:04.595Z,3.00
2018-12-07T00:09:35.349Z,3.00
2018-12-07T00:12:05.744Z,3.10
2018-12-07T00:14:35.354Z,3.10
2018-12-07T00:17:05.613Z,3.10
2018-12-07T00:19:36.320Z,3.00
2018-12-07T00:22:06.462Z,3.10
2018-12-07T00:24:36.199Z,3.10
2018-12-07T00:27:07.486Z,3.10
2018-12-07T00:29:37.058Z,3.10
2018-12-07T00:32:07.245Z,3.10
2018-12-07T00:34:37.040Z,3.10
2018-12-07T00:37:06.756Z,3.10
2018-12-07T00:39:36.532Z,3.10
2018-12-07T00:42:06.408Z,3.10
2018-12-07T00:44:35.910Z,3.10
2018-12-07T00:47:05.776Z,3.10
2018-12-07T00:49:35.408Z,3.20
2018-12-07T00:52:05.578Z,3.20
2018-12-07T00:54:35.900Z,3.20
2018-12-07T00:57:06.255Z,3.20
2018-12-07T00:59:35.822Z,3.20
2018-12-07T01:02:05.711Z,3.20
2018-12-07T01:04:35.655Z,3.30
2018-12-07T01:07:05.378Z,3.20
2018-12-07T01:09:36.308Z,3.20
2018-12-07T01:12:06.391Z,3.30
2018-12-07T01:14:35.994Z,3.30
2018-12-07T01:17:05.748Z,3.30
2018-12-07T01:19:35.532Z,3.30
2018-12-07T01:22:05.140Z,3.40
2018-12-07T01:24:34.944Z,3.40
2018-12-07T01:27:04.866Z,3.40
2018-12-07T01:29:34.349Z,3.40
2018-12-07T01:32:04.170Z,3.40
2018-12-07T01:34:34.019Z,3.40
2018-12-07T01:37:04.739Z,3.40
2018-12-07T01:39:34.472Z,3.40
2018-12-07T01:42:04.459Z,3.40
2018-12-07T01:44:33.959Z,3.50
2018-12-07T01:47:04.087Z,3.50
2018-12-07T01:49:33.812Z,3.50
2018-12-07T01:52:03.401Z,3.50
2018-12-07T01:54:32.991Z,3.50
2018-12-07T01:57:02.711Z,3.50
2018-12-07T01:59:32.411Z,3.50
2018-12-07T02:02:02.015Z,3.50
2018-12-07T02:04:31.655Z,3.50
2018-12-07T02:07:01.214Z,3.60
2018-12-07T02:09:31.023Z,3.60
2018-12-07T02:12:00.895Z,3.60
2018-12-07T02:14:30.491Z,3.60
2018-12-07T02:17:00.383Z,3.60
2018-12-07T02:19:30.250Z,3.60
2018-12-07T02:21:59.935Z,3.60
2018-12-07T02:24:29.578Z,3.60
2018-12-07T02:27:00.788Z,3.60
2018-12-07T02:29:30.580Z,3.60
2018-12-07T02:32:00.519Z,3.50
2018-12-07T02:34:30.451Z,3.60
2018-12-07T02:36:59.916Z,3.60
2018-12-07T02:39:29.699Z,3.60
2018-12-07T02:41:59.230Z,3.60
2018-12-07T02:44:28.856Z,3.60
2018-12-07T02:46:58.495Z,3.60
2018-12-07T02:49:28.118Z,3.60
2018-12-07T02:51:57.869Z,3.60
2018-12-07T02:54:27.662Z,3.60
2018-12-07T02:56:57.257Z,3.60
2018-12-07T02:59:26.880Z,3.60
2018-12-07T03:01:56.475Z,3.60
2018-12-07T03:04:25.990Z,3.60
2018-12-07T03:06:55.666Z,3.60
2018-12-07T03:09:25.160Z,3.60
2018-12-07T03:11:54.886Z,3.60
2018-12-07T03:14:24.806Z,3.60
2018-12-07T03:16:54.426Z,3.60
2018-12-07T03:19:23.876Z,3.60
2018-12-07T03:21:53.519Z,3.60
2018-12-07T03:24:23.439Z,3.60
2018-12-07T03:26:53.135Z,3.60
2018-12-07T03:29:22.960Z,3.60
2018-12-07T03:31:53.007Z,3.60
2018-12-07T03:34:22.558Z,3.60
2018-12-07T03:36:52.049Z,3.60
2018-12-07T03:39:21.739Z,3.60
2018-12-07T03:41:51.317Z,3.60
2018-12-07T03:44:21.488Z,3.60
2018-12-07T03:46:51.204Z,3.60
2018-12-07T03:49:20.731Z,3.60
2018-12-07T03:51:50.726Z,3.60
2018-12-07T03:54:20.549Z,3.60
2018-12-07T03:56:50.101Z,3.50
2018-12-07T03:59:19.903Z,3.60
2018-12-07T04:01:49.503Z,3.60
2018-12-07T04:04:18.976Z,3.60
2018-12-07T04:06:50.922Z,3.60
2018-12-07T04:09:20.455Z,3.50
2018-12-07T04:11:50.263Z,3.50
2018-12-07T04:14:20.333Z,3.50
2018-12-07T04:16:51.621Z,3.50
2018-12-07T04:19:21.385Z,3.60
2018-12-07T04:21:51.287Z,3.50
2018-12-07T04:24:21.226Z,3.50
2018-12-07T04:26:50.967Z,3.50
2018-12-07T04:29:20.687Z,3.50
2018-12-07T04:31:50.328Z,3.50
2018-12-07T04:34:22.325Z,3.50
2018-12-07T04:36:51.842Z,3.50
2018-12-07T04:39:21.819Z,3.50
2018-12-07T04:41:51.675Z,3.50
2018-12-07T04:44:21.723Z,3.50
2018-12-07T04:46:53.524Z,3.50
2018-12-07T04:49:23.077Z,3.50
2018-12-07T04:51:52.693Z,3.50
2018-12-07T04:54:22.704Z,3.50
2018-12-07T04:56:52.153Z,3.50
2018-12-07T04:59:21.864Z,3.50
2018-12-07T05:01:51.498Z,3.50
2018-12-07T05:04:21.379Z,3.50
2018-12-07T05:06:51.187Z,3.50
2018-12-07T05:09:21.199Z,3.50
2018-12-07T05:11:50.811Z,3.50
2018-12-07T05:14:20.568Z,3.50
2018-12-07T05:16:50.263Z,3.50
2018-12-07T05:19:20.247Z,3.50
2018-12-07T05:21:50.167Z,3.50
2018-12-07T05:24:19.911Z,3.50
2018-12-07T05:26:50.907Z,3.50
2018-12-07T05:29:20.830Z,3.50
2018-12-07T05:31:50.455Z,3.50
2018-12-07T05:34:20.047Z,3.50
2018-12-07T05:36:49.813Z,3.50
2018-12-07T05:39:19.894Z,3.50
2018-12-07T05:41:49.460Z,3.50
2018-12-07T05:44:19.422Z,3.50
2018-12-07T05:46:49.147Z,3.50
2018-12-07T05:49:19.041Z,3.50
2018-12-07T05:51:48.806Z,3.50
2018-12-07T05:54:18.512Z,3.50
2018-12-07T05:56:48.055Z,3.50
2018-12-07T05:59:17.524Z,3.50
2018-12-07T06:01:47.458Z,3.50
2018-12-07T06:04:17.077Z,3.50
2018-12-07T06:06:47.693Z,3.50
2018-12-07T06:09:17.369Z,3.50
2018-12-07T06:11:46.784Z,3.50
2018-12-07T06:14:16.547Z,3.50
2018-12-07T06:16:46.228Z,3.50
2018-12-07T06:19:16.059Z,3.50
2018-12-07T06:21:45.579Z,3.50
2018-12-07T06:24:15.382Z,3.50
2018-12-07T06:26:44.795Z,3.50
2018-12-07T06:29:14.541Z,3.50
2018-12-07T06:31:44.663Z,3.50
2018-12-07T06:34:14.976Z,3.50
2018-12-07T06:36:45.427Z,3.50
2018-12-07T06:39:15.042Z,3.50
2018-12-07T06:41:44.710Z,3.50
2018-12-07T06:44:14.343Z,3.50
2018-12-07T06:46:43.975Z,3.60
2018-12-07T06:49:14.129Z,3.50
2018-12-07T06:51:44.275Z,3.50
2018-12-07T06:54:14.595Z,3.50
2018-12-07T06:56:44.042Z,3.50
2018-12-07T06:59:13.532Z,3.60
2018-12-07T07:01:43.444Z,3.60
2018-12-07T07:04:14.119Z,3.60
2018-12-07T07:06:43.913Z,3.60
2018-12-07T07:09:13.723Z,3.60
2018-12-07T07:11:43.345Z,3.60
2018-12-07T07:14:13.036Z,3.60
2018-12-07T07:16:43.987Z,3.60
2018-12-07T07:19:14.051Z,3.60
2018-12-07T07:21:44.723Z,3.60
2018-12-07T07:24:14.442Z,3.60
2018-12-07T07:26:44.195Z,3.60
2018-12-07T07:29:14.303Z,3.60
2018-12-07T07:31:44.509Z,3.60
2018-12-07T07:34:14.048Z,3.60
2018-12-07T07:36:43.633Z,3.60
2018-12-07T07:39:13.587Z,3.60
2018-12-07T07:41:43.519Z,3.60
2018-12-07T07:44:13.403Z,3.60
2018-12-07T07:46:42.996Z,3.60
2018-12-07T07:49:12.835Z,3.60
2018-12-07T07:51:42.804Z,3.60
2018-12-07T07:54:12.550Z,3.60
2018-12-07T07:56:42.188Z,3.60
2018-12-07T07:59:11.803Z,3.60
2018-12-07T08:01:41.393Z,3.60
2018-12-07T08:04:12.198Z,3.60
2018-12-07T08:06:41.854Z,3.60
2018-12-07T08:09:11.643Z,3.60
2018-12-07T08:11:41.340Z,3.70
2018-12-07T08:14:10.882Z,3.60
2018-12-07T08:16:40.654Z,3.60
2018-12-07T08:19:10.166Z,3.60
2018-12-07T08:21:39.942Z,3.60
2018-12-07T08:24:09.707Z,3.60
2018-12-07T08:26:39.329Z,3.60
2018-12-07T08:29:08.897Z,3.60
2018-12-07T08:31:38.586Z,3.70
2018-12-07T08:34:08.464Z,3.70
2018-12-07T08:36:38.283Z,3.70
2018-12-07T08:39:10.435Z,3.70
2018-12-07T08:41:39.919Z,3.70
2018-12-07T08:44:10.039Z,3.70
2018-12-07T08:46:39.760Z,3.60
2018-12-07T08:49:09.351Z,3.70
2018-12-07T08:51:39.074Z,3.70
2018-12-07T08:54:08.867Z,3.60
2018-12-07T08:56:38.444Z,3.70
2018-12-07T08:59:08.284Z,3.70
2018-12-07T09:01:38.977Z,3.70
2018-12-07T09:04:09.097Z,3.70
2018-12-07T09:06:39.091Z,3.70
2018-12-07T09:09:09.590Z,3.70
2018-12-07T09:11:39.823Z,3.70
2018-12-07T09:14:09.835Z,3.70
2018-12-07T09:16:39.401Z,3.60
2018-12-07T09:19:09.115Z,3.70
2018-12-07T09:21:38.595Z,3.70
2018-12-07T09:24:08.502Z,3.70
2018-12-07T09:26:38.530Z,3.70
2018-12-07T09:29:09.265Z,3.70
2018-12-07T09:31:39.289Z,3.70
2018-12-07T09:34:09.155Z,3.70
2018-12-07T09:36:39.076Z,3.70
2018-12-07T09:39:10.357Z,3.70
2018-12-07T09:41:40.065Z,3.70
2018-12-07T09:44:09.891Z,3.80
2018-12-07T09:46:39.700Z,3.80
2018-12-07T09:49:09.194Z,3.70
2018-12-07T09:51:39.187Z,3.70
2018-12-07T09:54:08.979Z,3.70
2018-12-07T09:56:38.803Z,3.70
2018-12-07T09:59:08.336Z,3.70
2018-12-07T10:01:37.971Z,3.70
2018-12-07T10:04:07.797Z,3.70
2018-12-07T10:06:37.553Z,3.60
2018-12-07T10:09:08.832Z,3.60
2018-12-07T10:11:39.447Z,3.70
2018-12-07T10:14:10.427Z,3.60
2018-12-07T10:16:40.166Z,3.70
2018-12-07T10:19:09.694Z,3.60
2018-12-07T10:21:39.903Z,3.70
2018-12-07T10:24:09.800Z,3.70
2018-12-07T10:26:39.563Z,3.70
2018-12-07T10:29:09.286Z,3.70
2018-12-07T10:31:39.064Z,3.70
2018-12-07T10:34:08.838Z,3.70
2018-12-07T10:36:39.645Z,3.70
2018-12-07T10:39:09.479Z,3.70
2018-12-07T10:41:39.403Z,3.70
2018-12-07T10:44:09.225Z,3.80
2018-12-07T10:46:38.899Z,3.80
2018-12-07T10:49:08.506Z,3.80
2018-12-07T10:51:38.002Z,3.80
2018-12-07T10:54:07.705Z,3.80
2018-12-07T10:56:37.359Z,3.90
2018-12-07T10:59:07.548Z,3.90
2018-12-07T11:01:42.411Z,3.90
2018-12-07T11:04:17.704Z,3.90
2018-12-07T11:06:49.472Z,3.90
2018-12-07T11:09:25.383Z,3.90
2018-12-07T11:12:00.188Z,3.90
2018-12-07T11:14:34.856Z,3.90
2018-12-07T11:17:09.595Z,3.90
2018-12-07T11:19:44.399Z,3.90
2018-12-07T11:22:20.052Z,3.90
2018-12-07T11:24:56.434Z,3.90
2018-12-07T11:27:31.341Z,3.90
2018-12-07T11:30:06.926Z,3.90
2018-12-07T11:33:46.806Z,3.90
2018-12-07T11:36:16.781Z,3.90
2018-12-07T11:38:46.805Z,3.90
2018-12-07T11:41:16.458Z,3.90
2018-12-07T11:43:48.103Z,3.90
2018-12-07T11:46:17.907Z,3.90
2018-12-07T11:48:47.626Z,3.90
2018-12-07T11:51:17.238Z,3.80
2018-12-07T11:53:47.228Z,3.90
2018-12-07T11:56:17.111Z,3.90
2018-12-07T11:58:46.849Z,3.90
2018-12-07T12:01:16.416Z,3.90
2018-12-07T12:03:45.983Z,3.90
2018-12-07T12:06:15.472Z,3.90
2018-12-07T12:08:45.202Z,3.90
2018-12-07T12:11:17.007Z,3.80
2018-12-07T12:13:46.574Z,3.80
2018-12-07T12:16:16.168Z,3.80
2018-12-07T12:18:45.830Z,3.90
2018-12-07T12:21:15.581Z,3.80
2018-12-07T12:23:45.479Z,3.80
2018-12-07T12:26:15.164Z,3.80
2018-12-07T12:28:45.429Z,3.80
2018-12-07T12:31:15.351Z,3.80
2018-12-07T12:33:44.866Z,3.80
2018-12-07T12:36:17.113Z,3.80
2018-12-07T12:38:47.155Z,3.80
2018-12-07T12:41:17.158Z,3.80
2018-12-07T12:43:46.966Z,3.80
2018-12-07T12:46:16.904Z,3.80
2018-12-07T12:48:46.859Z,3.80
2018-12-07T12:51:16.850Z,3.80
2018-12-07T12:53:46.795Z,3.80
2018-12-07T12:56:16.384Z,3.80
2018-12-07T12:58:46.059Z,3.80
2018-12-07T13:01:16.187Z,3.80
2018-12-07T13:03:45.847Z,3.80
2018-12-07T13:06:15.274Z,3.90
2018-12-07T13:08:45.045Z,3.90
2018-12-07T13:11:14.602Z,3.90
2018-12-07T13:13:44.207Z,3.90
2018-12-07T13:16:14.067Z,4.00
2018-12-07T13:18:43.753Z,4.00
2018-12-07T13:21:13.391Z,3.90
2018-12-07T13:23:42.961Z,4.00
2018-12-07T13:26:12.666Z,4.00
2018-12-07T13:28:42.726Z,4.00
2018-12-07T13:31:12.486Z,3.90
2018-12-07T13:33:42.030Z,3.90
2018-12-07T13:36:12.020Z,3.90
2018-12-07T13:38:41.932Z,3.90
2018-12-07T13:41:11.914Z,3.90
2018-12-07T13:43:41.746Z,3.90
2018-12-07T13:46:11.506Z,3.90
2018-12-07T13:48:41.306Z,3.90
2018-12-07T13:51:11.200Z,3.90
2018-12-07T13:53:40.785Z,4.00
2018-12-07T13:56:16.282Z,4.00
2018-12-07T13:58:42.484Z,4.00
2018-12-07T14:01:12.338Z,4.00
2018-12-07T14:03:42.396Z,4.00
2018-12-07T14:06:12.575Z,4.00
2018-12-07T14:08:43.021Z,4.00
2018-12-07T14:11:12.901Z,4.00
2018-12-07T14:13:42.801Z,4.00
2018-12-07T14:16:13.222Z,4.00
2018-12-07T14:18:43.305Z,4.00
2018-12-07T14:21:13.897Z,4.00
2018-12-07T14:23:43.692Z,4.00
2018-12-07T14:26:13.639Z,4.00
2018-12-07T14:28:43.631Z,4.00
2018-12-07T14:31:13.705Z,4.00
2018-12-07T14:33:43.434Z,4.00
2018-12-07T14:36:13.904Z,4.00
2018-12-07T14:38:43.729Z,4.00
2018-12-07T14:41:13.674Z,4.00
2018-12-07T14:43:43.296Z,4.00
2018-12-07T14:46:13.976Z,4.00
2018-12-07T14:48:43.994Z,4.00
2018-12-07T14:51:13.660Z,4.00
2018-12-07T14:53:43.875Z,4.00
2018-12-07T14:56:14.227Z,4.00
2018-12-07T14:58:44.109Z,4.00
2018-12-07T15:01:13.897Z,4.00
2018-12-07T15:03:43.509Z,4.00
2018-12-07T15:06:13.600Z,4.00
2018-12-07T15:08:44.449Z,3.90
2018-12-07T15:11:14.162Z,3.90
2018-12-07T15:13:43.756Z,3.90
2018-12-07T15:16:13.849Z,3.90
2018-12-07T15:18:43.760Z,3.90
2018-12-07T15:21:13.438Z,3.80
2018-12-07T15:23:43.262Z,3.80
2018-12-07T15:26:12.968Z,3.80
2018-12-07T15:28:43.095Z,3.80
2018-12-07T15:31:14.080Z,3.80
2018-12-07T15:33:44.011Z,3.80
2018-12-07T15:36:14.357Z,3.80
2018-12-07T15:38:44.916Z,3.80
2018-12-07T15:41:15.462Z,3.80
2018-12-07T15:43:45.626Z,3.80
2018-12-07T15:46:16.027Z,3.70
2018-12-07T15:48:46.294Z,3.70
2018-12-07T15:51:16.184Z,3.70
2018-12-07T15:53:46.666Z,3.70
2018-12-07T15:56:16.952Z,3.70
2018-12-07T15:58:47.137Z,3.70
2018-12-07T16:01:18.712Z,3.70
2018-12-07T16:03:48.998Z,3.70
2018-12-07T16:06:19.276Z,3.70
2018-12-07T16:08:49.138Z,3.80
2018-12-07T16:11:20.120Z,3.80
2018-12-07T16:13:49.856Z,3.80
2018-12-07T16:16:19.719Z,3.80
2018-12-07T16:18:50.699Z,3.70
2018-12-07T16:21:21.157Z,3.70
2018-12-07T16:23:51.196Z,3.70
2018-12-07T16:26:20.895Z,3.70
2018-12-07T16:28:51.032Z,3.80
2018-12-07T16:31:20.920Z,3.80
2018-12-07T16:33:50.959Z,3.80
2018-12-07T16:36:20.666Z,3.80
2018-12-07T16:38:50.259Z,3.70
2018-12-07T16:41:20.653Z,3.70
2018-12-07T16:43:50.555Z,3.70
2018-12-07T16:46:20.759Z,3.70
2018-12-07T16:48:51.630Z,3.70
2018-12-07T16:51:22.168Z,3.70
2018-12-07T16:53:51.766Z,3.70
2018-12-07T16:56:21.834Z,3.70
2018-12-07T16:58:52.196Z,3.70
2018-12-07T17:01:22.083Z,3.70
2018-12-07T17:03:51.885Z,3.70
2018-12-07T17:06:22.565Z,3.70
2018-12-07T17:08:52.357Z,3.70
2018-12-07T17:11:22.284Z,3.70
2018-12-07T17:13:52.536Z,3.60
2018-12-07T17:16:22.537Z,3.60
2018-12-07T17:18:52.284Z,3.60
2018-12-07T17:21:22.347Z,3.60
2018-12-07T17:23:52.801Z,3.60
2018-12-07T17:26:22.891Z,3.60
2018-12-07T17:28:53.500Z,3.60
2018-12-07T17:31:23.817Z,3.60
2018-12-07T17:33:53.789Z,3.60
2018-12-07T17:36:23.711Z,3.60
2018-12-07T17:38:54.039Z,3.50
2018-12-07T17:41:24.005Z,3.50
2018-12-07T17:43:53.866Z,3.50
2018-12-07T17:46:23.456Z,3.50
2018-12-07T17:48:52.941Z,3.50
2018-12-07T17:51:22.561Z,3.50
2018-12-07T17:53:52.437Z,3.50
2018-12-07T17:56:22.112Z,3.60
2018-12-07T17:58:52.169Z,3.50
2018-12-07T18:01:22.224Z,3.50
2018-12-07T18:03:51.896Z,3.60
2018-12-07T18:06:22.180Z,3.50
2018-12-07T18:08:52.022Z,3.50
2018-12-07T18:11:21.793Z,3.50
2018-12-07T18:13:51.902Z,3.60
2018-12-07T18:16:21.768Z,3.60
2018-12-07T18:18:51.870Z,3.50
2018-12-07T18:21:21.800Z,3.50
2018-12-07T18:23:51.959Z,3.50
2018-12-07T18:26:21.825Z,3.50
2018-12-07T18:28:52.634Z,3.50
2018-12-07T18:31:22.563Z,3.50
2018-12-07T18:33:52.489Z,3.50
2018-12-07T18:36:22.062Z,3.50
2018-12-07T18:38:51.737Z,3.50
2018-12-07T18:41:21.650Z,3.50
2018-12-07T18:43:51.562Z,3.50
2018-12-07T18:46:23.487Z,3.50
2018-12-07T18:48:53.487Z,3.50
2018-12-07T18:51:24.409Z,3.50
2018-12-07T18:53:55.326Z,3.40
2018-12-07T18:56:26.128Z,3.50
2018-12-07T18:58:56.254Z,3.50
2018-12-07T19:01:26.351Z,3.50
2018-12-07T19:03:59.079Z,3.50
2018-12-07T19:06:29.453Z,3.50
2018-12-07T19:08:59.617Z,3.50
2018-12-07T19:11:29.439Z,3.50
2018-12-07T19:14:02.498Z,3.50
2018-12-07T19:16:34.503Z,3.50
2018-12-07T19:19:05.049Z,3.50
2018-12-07T19:21:34.645Z,3.50
2018-12-07T19:24:05.031Z,3.50
2018-12-07T19:26:36.266Z,3.50
2018-12-07T19:29:06.712Z,3.40
2018-12-07T19:31:36.445Z,3.40
2018-12-07T19:34:06.326Z,3.50
2018-12-07T19:36:36.321Z,3.50
2018-12-07T19:39:09.133Z,3.50
2018-12-07T19:41:40.565Z,3.50
2018-12-07T19:44:10.493Z,3.50
2018-12-07T19:46:40.254Z,3.50
2018-12-07T19:49:10.019Z,3.50
2018-12-07T19:51:40.118Z,3.50
2018-12-07T19:54:10.528Z,3.50
2018-12-07T19:56:41.138Z,3.50
2018-12-07T19:59:10.955Z,3.50
2018-12-07T20:01:41.196Z,3.50
2018-12-07T20:04:11.033Z,3.50
2018-12-07T20:06:41.007Z,3.50
2018-12-07T20:09:11.168Z,3.50
2018-12-07T20:11:41.103Z,3.50
2018-12-07T20:14:11.713Z,3.50
2018-12-07T20:16:41.487Z,3.50
2018-12-07T20:19:11.414Z,3.50
2018-12-07T20:21:41.319Z,3.50
2018-12-07T20:24:11.205Z,3.50
2018-12-07T20:26:41.107Z,3.50
2018-12-07T20:29:11.332Z,3.50
2018-12-07T20:31:41.518Z,3.50
2018-12-07T20:34:11.230Z,3.50
2018-12-07T20:36:41.988Z,3.50
2018-12-07T20:39:11.642Z,3.50
2018-12-07T20:41:42.428Z,3.50
2018-12-07T20:44:12.951Z,3.50
2018-12-07T20:46:42.853Z,3.50
2018-12-07T20:49:12.880Z,3.50
2018-12-07T20:51:42.716Z,3.50
2018-12-07T20:54:12.389Z,3.50
2018-12-07T20:56:42.848Z,3.50
2018-12-07T20:59:12.967Z,3.40
2018-12-07T21:01:50.884Z,3.40
2018-12-07T21:04:41.653Z,3.40
2018-12-07T21:11:45.744Z,3.40
2018-12-07T21:14:26.494Z,3.40
2018-12-07T21:17:20.554Z,3.40
2018-12-07T21:20:01.991Z,3.40
2018-12-07T21:22:32.134Z,3.30
2018-12-07T21:25:02.037Z,3.30
2018-12-07T21:27:32.643Z,3.30
2018-12-07T21:30:26.565Z,3.30
2018-12-07T21:32:56.635Z,3.40
2018-12-07T21:35:26.470Z,3.40
2018-12-07T21:37:56.201Z,3.40
2018-12-07T21:40:28.434Z,3.40
2018-12-07T21:42:58.233Z,3.40
2018-12-07T21:45:28.725Z,3.40
2018-12-07T21:48:21.064Z,3.40
2018-12-07T21:51:14.483Z,3.40
2018-12-07T21:53:44.239Z,3.40
2018-12-07T21:56:13.960Z,3.40
2018-12-07T21:58:43.598Z,3.40
2018-12-07T22:01:13.486Z,3.40
2018-12-07T22:03:43.805Z,3.40
2018-12-07T22:06:13.573Z,3.30
2018-12-07T22:08:44.960Z,3.30
2018-12-07T22:11:15.137Z,3.30
2018-12-07T22:13:45.782Z,3.40
2018-12-07T22:16:15.786Z,3.40
2018-12-07T22:18:46.000Z,3.40
2018-12-07T22:21:16.199Z,3.40
2018-12-07T22:23:46.103Z,3.40
2018-12-07T22:26:16.394Z,3.40
2018-12-07T22:28:47.310Z,3.40
2018-12-07T22:31:17.284Z,3.40
2018-12-07T22:33:46.787Z,3.40
2018-12-07T22:36:16.809Z,3.40
2018-12-07T22:38:46.925Z,3.40
2018-12-07T22:41:17.243Z,3.40
2018-12-07T22:43:47.081Z,3.40
2018-12-07T22:46:17.105Z,3.40
2018-12-07T22:48:47.089Z,3.40
2018-12-07T22:51:19.544Z,3.40
2018-12-07T22:53:49.478Z,3.40
2018-12-07T22:56:19.144Z,3.40
2018-12-07T22:58:49.791Z,3.40
2018-12-07T23:01:19.818Z,3.40
2018-12-07T23:03:49.810Z,3.40
2018-12-07T23:06:20.394Z,3.40
2018-12-07T23:08:50.001Z,3.40
2018-12-07T23:11:19.704Z,3.40
2018-12-07T23:13:49.830Z,3.50
2018-12-07T23:16:21.437Z,3.40
2018-12-07T23:18:51.127Z,3.50
2018-12-07T23:21:20.658Z,3.50
2018-12-07T23:23:50.358Z,3.50
2018-12-07T23:26:20.167Z,3.40
2018-12-07T23:28:50.218Z,3.40
2018-12-07T23:31:19.823Z,3.40
2018-12-07T23:33:49.703Z,3.40
2018-12-07T23:36:20.123Z,3.50
2018-12-07T23:38:49.731Z,3.40
2018-12-07T23:41:19.347Z,3.40
2018-12-07T23:43:49.117Z,3.40
2018-12-07T23:46:22.220Z,3.40
2018-12-07T23:48:53.156Z,3.40
2018-12-07T23:51:22.727Z,3.40
2018-12-07T23:53:52.423Z,3.40
2018-12-07T23:56:22.544Z,3.40
2018-12-07T23:58:52.130Z,3.40
